TimePST,TemperatureF,Dew PointF,Humidity,Sea Level PressureIn,VisibilityMPH,Wind Direction,Wind SpeedMPH,Gust SpeedMPH,PrecipitationIn,Events,Conditions,WindDirDegrees,DateUTC
12:50 AM,31.5,31.5,100,29.86,1.0,West,4.6,-,0.01,Snow,Light Snow,280,2012-12-26 08:50:00
1:50 AM,31.5,31.3,99,29.84,2.0,WNW,4.6,-,0.00,Snow,Light Snow,300,2012-12-26 09:50:00
2:50 AM,31.6,31.5,99,29.84,3.0,WNW,6.9,-,N/A,Snow,Light Snow,300,2012-12-26 10:50:00
3:50 AM,31.6,31.6,100,29.83,1.0,WNW,5.8,-,N/A,Snow,Light Snow,300,2012-12-26 11:50:00
4:50 AM,31.6,31.6,100,29.83,2.0,WNW,6.9,-,0.00,Snow,Light Snow,300,2012-12-26 12:50:00
5:50 AM,31.6,31.6,100,29.83,1.0,WNW,6.9,-,0.00,Snow,Light Snow,300,2012-12-26 13:50:00
6:50 AM,31.8,31.6,99,29.83,6.0,WNW,5.8,-,0.00,Snow,Light Snow,300,2012-12-26 14:50:00
7:50 AM,31.8,31.6,99,29.83,8.0,WNW,6.9,-,N/A,Snow,Light Snow,290,2012-12-26 15:50:00
8:50 AM,32.2,31.8,99,29.83,8.0,West,6.9,-,N/A,Snow,Light Snow,280,2012-12-26 16:50:00
9:50 AM,32.4,31.8,98,29.87,10.0,West,6.9,-,N/A,,Overcast,280,2012-12-26 17:50:00
10:50 AM,34.0,31.6,91,29.88,15.0,WNW,5.8,-,N/A,,Overcast,290,2012-12-26 18:50:00
11:50 AM,35.4,32.0,87,29.87,15.0,WNW,9.2,-,N/A,,Overcast,290,2012-12-26 19:50:00
12:50 PM,36.0,30.6,81,29.87,15.0,WNW,5.8,-,N/A,,Mostly Cloudy,290,2012-12-26 20:50:00
1:50 PM,37.2,29.7,74,29.86,15.0,WNW,6.9,-,N/A,,Mostly Cloudy,290,2012-12-26 21:50:00
2:50 PM,37.0,31.6,81,29.88,15.0,WNW,4.6,-,N/A,,Mostly Cloudy,290,2012-12-26 22:50:00
3:50 PM,33.6,31.6,92,29.89,15.0,South,5.8,-,N/A,,Mostly Cloudy,170,2012-12-26 23:50:00
5:50 PM,33.1,31.8,95,29.92,15.0,SW,3.5,-,N/A,,Overcast,220,2012-12-27 01:50:00
6:50 PM,32.9,31.8,96,29.92,15.0,South,4.6,-,N/A,,Overcast,170,2012-12-27 02:50:00
10:50 PM,32.0,30.9,96,29.97,15.0,WSW,4.6,-,N/A,,Overcast,240,2012-12-27 06:50:00
11:50 PM,31.6,30.4,95,29.99,15.0,WNW,5.8,-,N/A,,Overcast,300,2012-12-27 07:50:00